Alto, Michigan
Current Conditions -  °F | °C
As of 8:53 AM on Thursday 30 Oct 2014 (Local Time) from KGRR Reporting Station
Overcast Overcast  
Wind Chill: 43°   Ceiling: 4200
Heat Index: 43°   Visibility: 10mi
Dew Point: 39°   Wind: 3mph
Humidity: 86%   Direction: 150°SSE
Pressure: 30.12"   Gusts: NA
Location:  42.86°N, 85.38°W
Report Text: KGRR 301253Z 15003KT 10SM FEW034 OVC042 06/04 A3012 RMK AO2 SLP205 T00610039
Loading
Personal Weather Stations






























Interactive Weather Map
Tropical Storm Tracking
New forecast layout! Learn more

10-Day Weather Forecast

Advertisements
Track Severe Weather on mobile